This is the latest recevied weather packets stored in our database for station/object KF0PEC-15. If no packets are shown the sender has not sent any weather packets the latest 10 day(s).
| Time | Temp. | Humidity | Pressure | Rain* | Wind** | Luminosity | Snow |
|---|---|---|---|---|---|---|---|
| 1777815765 | 10.56° C | 40% | 1019.1 hPa | 0 mm | - | 953 W/m² | - |
| 1777815165 | 10° C | 41% | 1019.6 hPa | 0 mm | - | 849 W/m² | - |
| 1777814565 | 8.89° C | 44% | 1020.3 hPa | 0 mm | - | 726 W/m² | - |
| 1777814085 | 8.89° C | 46% | 1020.6 hPa | 0 mm | - | 592 W/m² | - |
| 1777813500 | 8.89° C | 45% | 1020.6 hPa | 0 mm | - | 515 W/m² | - |
| 1777812985 | 8.33° C | 45% | 1020.6 hPa | 0 mm | - | 473 W/m² | - |
| 1777812475 | 7.78° C | 46% | 1021.1 hPa | 0 mm | - | 413 W/m² | - |
| 1777811977 | 6.67° C | 51% | 1021.9 hPa | 0 mm | - | 291 W/m² | - |
| 1777811495 | 6.11° C | 50% | 1022.3 hPa | 0 mm | - | 250 W/m² | - |
| 1777811000 | 3.33° C | 69% | 1024.5 hPa | 0 mm | - | 176 W/m² | - |
| 1777810515 | 3.33° C | 69% | 1024.6 hPa | 0 mm | - | 790 W/m² | - |
| 1777810025 | 3.33° C | 68% | 1024.6 hPa | 0 mm | - | 476 W/m² | - |
| 1777809437 | 3.33° C | 68% | 1024.2 hPa | 0 mm | - | 146 W/m² | - |
| 1777808851 | 3.33° C | 66% | 1024.3 hPa | 0 mm | - | 19 W/m² | - |
| 1777808255 | 3.33° C | 66% | 1024 hPa | 0 mm | - | 0 W/m² | - |
| 1777807745 | 3.33° C | 64% | 1024 hPa | 0 mm | - | 0 W/m² | - |
| 1777807265 | 3.33° C | 66% | 1024.5 hPa | 0 mm | - | 0 W/m² | - |
| 1777806770 | 2.78° C | 67% | 1024.6 hPa | 0 mm | - | 0 W/m² | - |
| 1777806187 | 2.78° C | 67% | 1024.8 hPa | 0 mm | - | 0 W/m² | - |
| 1777805630 | 3.33° C | 66% | 1024.5 hPa | 0 mm | - | 0 W/m² | - |
| 1777805040 | 3.33° C | 65% | 1024.6 hPa | 0 mm | - | 0 W/m² | - |
| 1777804465 | 3.33° C | 64% | 1024.4 hPa | 0 mm | - | 0 W/m² | - |
| 1777803865 | 3.89° C | 61% | 1024.1 hPa | 0 mm | - | 0 W/m² | - |
| 1777803330 | 3.89° C | 62% | 1024.1 hPa | 0 mm | - | 0 W/m² | - |
| 1777802825 | 3.89° C | 62% | 1024.1 hPa | 0 mm | - | 0 W/m² | - |
* Rain latest hour (hover to see other rain measurements)
** Current wind speed in m/s (hover to see current wind gust speed)